createdAt,value
2019-01-19T00:01:05.347Z,2.63
2019-01-19T00:03:53.001Z,4.47
2019-01-19T00:06:31.126Z,6.27
2019-01-19T00:09:01.899Z,3.33
2019-01-19T00:12:05.160Z,2.33
2019-01-19T00:14:33.561Z,3.43
2019-01-19T00:17:10.890Z,3.20
2019-01-19T00:19:59.071Z,5.20
2019-01-19T00:22:39.510Z,3.63
2019-01-19T00:25:44.563Z,3.47
2019-01-19T00:28:33.756Z,3.03
2019-01-19T00:31:17.142Z,6.30
2019-01-19T00:33:48.704Z,4.43
2019-01-19T00:36:55.706Z,3.50
2019-01-19T00:40:05.295Z,3.60
2019-01-19T00:43:14.140Z,7.10
2019-01-19T00:46:22.625Z,6.17
2019-01-19T00:49:30.940Z,6.60
2019-01-19T00:52:38.132Z,6.40
2019-01-19T00:55:46.536Z,4.80
2019-01-19T00:58:54.880Z,4.10
2019-01-19T01:02:01.882Z,6.40
2019-01-19T01:05:10.226Z,5.30
2019-01-19T01:08:18.614Z,3.77
2019-01-19T01:11:27.026Z,5.00
2019-01-19T01:14:34.015Z,6.43
2019-01-19T01:17:42.431Z,4.80
2019-01-19T01:20:49.435Z,6.07
2019-01-19T01:23:56.524Z,5.43
2019-01-19T01:27:03.512Z,7.33
2019-01-19T01:30:10.965Z,4.80
2019-01-19T01:33:19.344Z,6.37
2019-01-19T01:36:27.746Z,5.97
2019-01-19T01:39:34.732Z,6.10
2019-01-19T01:42:43.108Z,5.47
2019-01-19T01:45:51.426Z,3.37
2019-01-19T01:48:59.879Z,5.00
2019-01-19T01:52:08.256Z,7.70
2019-01-19T01:55:16.602Z,5.83
2019-01-19T01:58:24.918Z,5.27
2019-01-19T02:01:32.072Z,4.30
2019-01-19T02:04:40.384Z,7.03
2019-01-19T02:07:48.735Z,6.70
2019-01-19T02:10:55.795Z,6.53
2019-01-19T02:14:02.884Z,9.40
2019-01-19T02:17:11.268Z,7.60
2019-01-19T02:20:19.676Z,7.07
2019-01-19T02:23:27.992Z,6.23
2019-01-19T02:26:35.172Z,5.67
2019-01-19T02:29:42.244Z,5.50
2019-01-19T02:32:50.566Z,7.17
2019-01-19T02:35:58.883Z,6.00
2019-01-19T02:39:07.333Z,4.77
2019-01-19T02:42:15.609Z,5.07
2019-01-19T02:45:24.276Z,5.27
2019-01-19T02:48:32.583Z,3.33
2019-01-19T02:51:41.010Z,3.73
2019-01-19T02:54:49.325Z,4.43
2019-01-19T02:57:57.842Z,5.17
2019-01-19T03:01:04.827Z,4.27
2019-01-19T03:04:13.166Z,3.23
2019-01-19T03:07:21.535Z,2.50
2019-01-19T03:10:30.314Z,2.57
2019-01-19T03:13:38.678Z,5.60
2019-01-19T03:16:47.067Z,2.90
2019-01-19T03:19:55.390Z,5.10
2019-01-19T03:23:02.404Z,3.13
2019-01-19T03:26:09.397Z,4.13
2019-01-19T03:29:17.887Z,2.57
2019-01-19T03:32:26.263Z,4.00
2019-01-19T03:35:34.692Z,3.43
2019-01-19T03:38:43.095Z,3.30
2019-01-19T03:41:50.281Z,3.97
2019-01-19T03:44:58.603Z,6.20
2019-01-19T03:48:05.704Z,6.83
2019-01-19T03:51:12.693Z,7.00
2019-01-19T03:54:21.044Z,6.83
2019-01-19T03:57:28.033Z,5.80
2019-01-19T04:00:36.368Z,4.87
2019-01-19T04:03:44.810Z,6.27
2019-01-19T04:06:51.846Z,7.87
2019-01-19T04:09:58.838Z,5.90
2019-01-19T04:13:05.919Z,5.33
2019-01-19T04:16:14.247Z,5.17
2019-01-19T04:19:21.293Z,6.57
2019-01-19T04:22:28.289Z,4.23
2019-01-19T04:25:36.644Z,3.93
2019-01-19T04:30:54.167Z,6.70
2019-01-19T04:33:22.571Z,3.70
2019-01-19T04:35:50.978Z,5.37
2019-01-19T04:41:14.305Z,3.30
2019-01-19T04:43:42.702Z,4.37
2019-01-19T04:46:11.113Z,3.53
2019-01-19T04:51:18.571Z,3.47
2019-01-19T04:53:46.945Z,3.50
2019-01-19T04:56:15.446Z,3.60
2019-01-19T04:58:43.862Z,3.57
2019-01-19T05:01:31.599Z,6.23
2019-01-19T05:04:19.561Z,4.63
2019-01-19T05:06:48.035Z,4.03
2019-01-19T05:09:35.850Z,3.30
2019-01-19T05:12:44.161Z,3.57
2019-01-19T05:15:32.001Z,4.43
2019-01-19T05:26:00.573Z,4.50
2019-01-19T05:28:29.040Z,3.77
2019-01-19T05:30:59.151Z,4.00
2019-01-19T05:33:27.737Z,4.40
2019-01-19T05:35:56.130Z,5.33
2019-01-19T05:38:24.523Z,6.80
2019-01-19T05:43:26.586Z,7.73
2019-01-19T05:45:54.981Z,4.87
2019-01-19T05:50:56.995Z,6.63
2019-01-19T05:56:18.213Z,8.13
2019-01-19T05:58:46.609Z,7.27
2019-01-19T06:11:58.144Z,3.53
2019-01-19T06:14:26.540Z,3.60
2019-01-19T06:16:54.950Z,4.03
2019-01-19T06:24:41.309Z,5.53
2019-01-19T06:27:09.709Z,3.57
2019-01-19T06:29:38.103Z,4.73
2019-01-19T06:32:06.514Z,3.67
2019-01-19T06:34:34.917Z,4.27
2019-01-19T06:37:04.356Z,6.13
2019-01-19T06:42:07.024Z,8.37
2019-01-19T06:44:35.422Z,4.00
2019-01-19T06:47:03.840Z,4.23
2019-01-19T06:49:51.576Z,7.17
2019-01-19T06:55:53.059Z,4.07
2019-01-19T07:01:15.997Z,7.97
2019-01-19T07:03:44.391Z,4.03
2019-01-19T07:06:32.168Z,15.50
2019-01-19T07:09:00.569Z,7.17
2019-01-19T07:16:52.337Z,4.60
2019-01-19T07:19:20.759Z,5.30
2019-01-19T07:21:49.169Z,5.63
2019-01-19T07:24:17.565Z,6.07
2019-01-19T07:26:46.001Z,5.50
2019-01-19T07:29:16.186Z,7.83
2019-01-19T07:31:44.582Z,9.30
2019-01-19T07:34:13.024Z,8.03
2019-01-19T07:36:41.423Z,7.93
2019-01-19T07:39:09.822Z,5.83
2019-01-19T07:41:57.590Z,7.43
2019-01-19T07:44:25.990Z,8.07
2019-01-19T07:52:17.697Z,4.60
2019-01-19T07:55:05.409Z,4.17
2019-01-19T07:57:53.062Z,6.03
2019-01-19T08:00:40.923Z,7.10
2019-01-19T08:03:28.664Z,5.23
2019-01-19T08:05:57.087Z,6.03
2019-01-19T08:08:44.833Z,5.70
2019-01-19T08:13:47.642Z,5.00
2019-01-19T08:16:16.067Z,3.50
2019-01-19T08:18:44.460Z,4.33
2019-01-19T08:21:12.904Z,5.57
2019-01-19T08:26:14.944Z,6.13
2019-01-19T08:29:04.248Z,9.10
2019-01-19T08:31:32.642Z,4.93
2019-01-19T08:34:20.488Z,5.10
2019-01-19T08:39:38.216Z,8.17
2019-01-19T08:42:06.683Z,6.07
2019-01-19T08:44:35.216Z,8.03
2019-01-19T08:47:03.722Z,5.73
2019-01-19T08:49:32.123Z,9.73
2019-01-19T08:52:00.595Z,8.30
2019-01-19T08:54:29.066Z,7.43
2019-01-19T08:56:57.447Z,7.97
2019-01-19T08:59:25.847Z,4.87
2019-01-19T09:07:42.482Z,15.73
2019-01-19T09:10:30.277Z,19.03
2019-01-19T09:12:58.788Z,16.50
2019-01-19T09:15:27.199Z,25.30
2019-01-19T09:17:55.625Z,25.23
2019-01-19T09:20:24.110Z,19.43
2019-01-19T09:23:11.634Z,21.53
2019-01-19T09:25:40.076Z,18.97
2019-01-19T09:28:08.489Z,19.03
2019-01-19T09:30:36.900Z,28.50
2019-01-19T09:33:05.404Z,25.10
2019-01-19T09:35:33.812Z,31.40
2019-01-19T09:38:02.294Z,30.60
2019-01-19T09:40:30.745Z,24.40
2019-01-19T09:42:59.221Z,26.37
2019-01-19T09:45:27.619Z,21.80
2019-01-19T09:47:56.062Z,19.27
2019-01-19T09:50:24.613Z,18.17
2019-01-19T09:52:53.079Z,24.53
2019-01-19T09:57:56.026Z,24.50
2019-01-19T10:01:04.570Z,22.73
2019-01-19T10:03:32.986Z,21.03
2019-01-19T10:06:01.388Z,25.10
2019-01-19T10:08:29.816Z,21.87
2019-01-19T10:16:23.038Z,20.30
2019-01-19T10:18:51.450Z,23.63
2019-01-19T10:21:19.841Z,16.03
2019-01-19T10:26:22.730Z,13.50
2019-01-19T10:31:26.843Z,15.63
2019-01-19T10:33:55.232Z,17.80
2019-01-19T10:36:24.798Z,15.53
2019-01-19T10:38:53.854Z,16.43
2019-01-19T10:41:22.253Z,11.67
2019-01-19T10:43:50.652Z,12.63
2019-01-19T10:48:53.220Z,19.63
2019-01-19T10:51:21.705Z,22.17
2019-01-19T10:53:50.101Z,15.50
2019-01-19T10:56:18.504Z,15.83
2019-01-19T11:01:21.304Z,23.27
2019-01-19T11:03:49.704Z,19.60
2019-01-19T11:06:18.104Z,16.47
2019-01-19T11:08:46.497Z,21.33
2019-01-19T11:11:14.932Z,26.77
2019-01-19T11:13:43.336Z,21.70
2019-01-19T11:16:11.736Z,24.40
2019-01-19T11:18:40.246Z,16.33
2019-01-19T11:21:08.706Z,13.53
2019-01-19T11:23:39.949Z,13.37
2019-01-19T11:28:40.905Z,7.77
2019-01-19T11:31:09.312Z,14.37
2019-01-19T11:33:37.864Z,14.43
2019-01-19T11:36:06.357Z,18.17
2019-01-19T11:38:34.745Z,15.30
2019-01-19T11:41:03.159Z,15.03
2019-01-19T11:43:31.740Z,15.43
2019-01-19T11:46:00.208Z,16.77
2019-01-19T11:48:28.673Z,17.10
2019-01-19T11:50:57.168Z,16.00
2019-01-19T11:53:25.561Z,16.57
2019-01-19T11:55:54.088Z,14.60
2019-01-19T11:58:34.431Z,18.90
2019-01-19T12:00:52.727Z,31.07
2019-01-19T12:03:21.201Z,31.27
2019-01-19T12:05:49.670Z,20.23
2019-01-19T12:08:19.677Z,27.60
2019-01-19T12:10:48.309Z,36.60
2019-01-19T12:13:16.738Z,36.33
2019-01-19T12:15:45.114Z,21.03
2019-01-19T12:18:25.484Z,19.90
2019-01-19T12:20:53.889Z,16.43
2019-01-19T12:23:22.459Z,16.47
2019-01-19T12:25:51.770Z,26.03
2019-01-19T12:28:21.029Z,14.70
2019-01-19T12:30:49.425Z,17.43
2019-01-19T12:33:17.920Z,16.43
2019-01-19T12:35:46.315Z,14.37
2019-01-19T12:38:14.713Z,11.50
2019-01-19T12:40:43.147Z,17.77
2019-01-19T12:43:51.463Z,18.87
2019-01-19T12:46:39.077Z,19.23
2019-01-19T12:49:07.479Z,19.83
2019-01-19T12:51:35.875Z,21.87
2019-01-19T12:54:44.307Z,17.63
2019-01-19T12:57:32.021Z,12.53
2019-01-19T13:00:14.585Z,10.60
2019-01-19T13:02:30.551Z,13.07
2019-01-19T13:08:34.320Z,17.80
2019-01-19T13:11:38.087Z,10.00
2019-01-19T13:14:25.867Z,11.53
2019-01-19T13:17:34.193Z,11.50
2019-01-19T13:20:42.868Z,11.40
2019-01-19T13:23:49.861Z,9.40
2019-01-19T13:26:56.873Z,15.10
2019-01-19T13:30:05.199Z,8.83
2019-01-19T13:33:13.880Z,16.30
2019-01-19T13:36:20.869Z,14.50
2019-01-19T13:39:27.969Z,12.83
2019-01-19T13:42:36.289Z,20.43
2019-01-19T13:45:44.727Z,19.70
2019-01-19T13:48:51.724Z,9.43
2019-01-19T13:52:00.071Z,11.50
2019-01-19T13:55:07.102Z,13.30
2019-01-19T13:58:15.481Z,9.70
2019-01-19T14:01:22.469Z,11.00
2019-01-19T14:04:29.520Z,11.17
2019-01-19T14:07:37.901Z,12.73
2019-01-19T14:10:44.941Z,12.40
2019-01-19T14:13:53.261Z,15.00
2019-01-19T14:17:00.283Z,12.83
2019-01-19T14:20:07.276Z,11.00
2019-01-19T14:23:14.434Z,8.57
2019-01-19T14:29:35.826Z,13.27
2019-01-19T14:32:44.142Z,10.57
2019-01-19T14:35:52.485Z,13.37
2019-01-19T14:39:00.815Z,26.40
2019-01-19T14:42:09.389Z,23.97
2019-01-19T14:45:17.709Z,38.77
2019-01-19T14:48:24.804Z,22.10
2019-01-19T14:51:33.229Z,43.83
2019-01-19T14:54:40.429Z,22.63
2019-01-19T14:57:47.427Z,12.10
2019-01-19T15:00:54.430Z,9.60
2019-01-19T15:04:01.419Z,14.50
2019-01-19T15:07:09.761Z,10.13
2019-01-19T15:10:16.752Z,11.23
2019-01-19T15:13:23.892Z,16.60
2019-01-19T15:16:32.215Z,12.33
2019-01-19T15:19:39.547Z,9.80
2019-01-19T15:22:46.709Z,12.67
2019-01-19T15:25:55.258Z,17.50
2019-01-19T15:29:02.189Z,17.30
2019-01-19T15:32:09.217Z,12.60
2019-01-19T15:35:17.539Z,11.30
2019-01-19T15:38:25.967Z,14.25
2019-01-19T15:41:32.971Z,14.07
2019-01-19T15:44:40.410Z,18.33
2019-01-19T15:47:47.395Z,13.27
2019-01-19T15:50:54.729Z,15.03
2019-01-19T15:54:03.056Z,26.07
2019-01-19T15:57:11.401Z,30.77
2019-01-19T16:00:18.404Z,78.27
2019-01-19T16:03:26.892Z,81.87
2019-01-19T16:06:33.963Z,33.63
2019-01-19T16:09:41.080Z,32.03
2019-01-19T16:12:48.071Z,20.90
2019-01-19T16:15:56.672Z,30.33
2019-01-19T16:19:03.674Z,15.67
2019-01-19T16:21:43.138Z,30.87
2019-01-19T16:24:51.522Z,23.87
2019-01-19T16:27:58.556Z,27.63
2019-01-19T16:31:05.548Z,25.73
2019-01-19T16:34:12.604Z,22.87
2019-01-19T16:37:20.924Z,20.23
2019-01-19T16:40:28.275Z,34.00
2019-01-19T16:43:35.264Z,26.40
2019-01-19T16:46:44.879Z,25.70
2019-01-19T16:49:53.741Z,23.13
2019-01-19T16:53:02.170Z,20.67
2019-01-19T16:56:10.486Z,22.93
2019-01-19T16:59:17.576Z,16.17
2019-01-19T17:02:24.569Z,20.43
2019-01-19T17:05:36.406Z,21.27
2019-01-19T17:08:43.335Z,22.53
2019-01-19T17:11:50.347Z,21.43
2019-01-19T17:14:58.460Z,182.33
2019-01-19T17:18:06.863Z,46.80
2019-01-19T17:21:13.856Z,26.23
2019-01-19T17:24:20.881Z,23.03
2019-01-19T17:27:27.900Z,30.17
2019-01-19T17:30:36.358Z,22.73
2019-01-19T17:33:44.737Z,27.63
2019-01-19T17:36:51.831Z,32.37
2019-01-19T17:39:58.834Z,31.63
2019-01-19T17:43:07.184Z,83.37
2019-01-19T17:46:14.199Z,67.23
2019-01-19T17:49:21.223Z,57.50
2019-01-19T17:52:28.219Z,37.07
2019-01-19T17:55:36.597Z,39.00
2019-01-19T17:58:44.920Z,35.23
2019-01-19T18:01:52.004Z,38.70
2019-01-19T18:04:58.999Z,37.83
2019-01-19T18:08:07.350Z,24.27
2019-01-19T18:11:14.347Z,28.47
2019-01-19T18:14:21.693Z,32.77
2019-01-19T18:17:30.016Z,33.87
2019-01-19T18:20:38.420Z,36.73
2019-01-19T18:23:46.749Z,47.00
2019-01-19T18:26:55.195Z,32.23
2019-01-19T18:30:02.199Z,28.93
2019-01-19T18:33:09.222Z,30.47
2019-01-19T18:36:16.217Z,27.00
2019-01-19T18:39:23.243Z,27.97
2019-01-19T18:42:31.570Z,26.27
2019-01-19T18:45:38.588Z,27.70
2019-01-19T18:48:45.608Z,44.03
2019-01-19T18:51:52.693Z,35.97
2019-01-19T18:55:01.019Z,31.93
2019-01-19T18:58:09.503Z,28.40
2019-01-19T19:01:17.886Z,33.13
2019-01-19T19:04:24.997Z,34.47
2019-01-19T19:07:32.061Z,27.07
2019-01-19T19:10:39.159Z,30.17
2019-01-19T19:13:47.503Z,27.00
2019-01-19T19:16:54.579Z,21.80
2019-01-19T19:20:02.946Z,22.10
2019-01-19T19:23:11.312Z,21.73
2019-01-19T19:26:18.315Z,24.13
2019-01-19T19:29:25.358Z,21.47
2019-01-19T19:32:33.682Z,17.23
2019-01-19T19:35:42.121Z,21.13
2019-01-19T19:38:49.110Z,18.63
2019-01-19T19:41:56.125Z,17.70
2019-01-19T19:45:04.446Z,26.73
2019-01-19T19:48:12.946Z,21.33
2019-01-19T19:51:19.948Z,18.57
2019-01-19T19:56:21.514Z,21.67
2019-01-19T20:01:24.222Z,18.03
2019-01-19T20:03:52.646Z,17.57
2019-01-19T20:06:21.052Z,18.37
2019-01-19T20:08:49.457Z,19.70
2019-01-19T20:11:17.879Z,16.80
2019-01-19T20:13:46.310Z,21.80
2019-01-19T20:16:14.692Z,17.20
2019-01-19T20:18:43.131Z,27.60
2019-01-19T20:21:11.531Z,23.10
2019-01-19T20:23:39.936Z,22.20
2019-01-19T20:26:08.378Z,29.33
2019-01-19T20:28:36.790Z,22.93
2019-01-19T20:31:05.273Z,16.13
2019-01-19T20:33:33.702Z,30.77
2019-01-19T20:36:02.170Z,30.27
2019-01-19T20:38:30.579Z,24.87
2019-01-19T20:40:59.052Z,22.67
2019-01-19T20:43:27.446Z,24.43
2019-01-19T20:45:55.855Z,27.57
2019-01-19T20:51:22.275Z,21.33
2019-01-19T20:53:50.679Z,18.80
2019-01-19T20:56:19.086Z,14.87
2019-01-19T20:58:47.519Z,19.43
2019-01-19T21:01:15.925Z,23.33
2019-01-19T21:03:44.329Z,23.03
2019-01-19T21:06:12.768Z,26.90
2019-01-19T21:08:41.187Z,25.00
2019-01-19T21:11:09.587Z,22.63
2019-01-19T21:16:11.511Z,20.23
2019-01-19T21:18:39.975Z,25.90
2019-01-19T21:26:50.845Z,17.50
2019-01-19T21:29:19.280Z,22.67
2019-01-19T21:31:47.685Z,19.83
2019-01-19T21:34:16.086Z,25.30
2019-01-19T21:36:44.521Z,27.67
2019-01-19T21:39:12.940Z,36.83
2019-01-19T21:41:41.398Z,38.43
2019-01-19T21:46:44.054Z,42.30
2019-01-19T21:49:12.538Z,66.53
2019-01-19T21:51:40.931Z,35.63
2019-01-19T21:54:09.580Z,33.13
2019-01-19T21:59:32.730Z,52.20
2019-01-19T22:02:01.170Z,44.23
2019-01-19T22:04:29.570Z,43.93
2019-01-19T22:06:57.975Z,63.27
2019-01-19T22:09:26.425Z,38.13
2019-01-19T22:11:54.838Z,24.93
2019-01-19T22:14:42.695Z,29.50
2019-01-19T22:17:11.108Z,29.43
2019-01-19T22:19:39.515Z,26.80
2019-01-19T22:22:27.210Z,26.20
2019-01-19T22:24:55.616Z,29.83
2019-01-19T22:30:53.161Z,31.63
2019-01-19T22:36:10.740Z,30.47
2019-01-19T22:38:39.145Z,27.57
2019-01-19T22:41:07.546Z,34.47
2019-01-19T22:46:09.754Z,24.07
2019-01-19T22:48:38.278Z,24.97
2019-01-19T22:51:11.162Z,30.97
2019-01-19T22:53:36.823Z,26.00
2019-01-19T22:56:05.335Z,28.40
2019-01-19T22:58:33.756Z,25.50
2019-01-19T23:01:42.185Z,25.37
2019-01-19T23:04:10.590Z,23.67
2019-01-19T23:06:39.000Z,28.70
2019-01-19T23:09:47.429Z,21.73
2019-01-19T23:12:15.852Z,21.83
2019-01-19T23:20:47.687Z,19.93
2019-01-19T23:25:50.561Z,21.90
2019-01-19T23:30:52.578Z,23.80
2019-01-19T23:33:20.997Z,23.50
2019-01-19T23:38:23.562Z,19.10
2019-01-19T23:43:45.895Z,24.97
2019-01-19T23:46:14.321Z,19.50
2019-01-19T23:48:42.725Z,23.40
2019-01-19T23:51:11.132Z,19.57
2019-01-19T23:56:13.803Z,22.13
2019-01-19T23:58:42.243Z,21.60
